M I D A S
Marine Information and Data Acquisition System
Tripno 1570 of the Zeeleeuw from 2008-09-19 06:57:54 to 2008-09-19 14:09:47
Back to CruiseResearch ActivitiesStationsMapUnderway DataData graphs

EquipmentUnitsComment
TimeDGPSUTC
LatitudeDGPSDM.mWGS84
LongitudeDGPSDM.mWGS84
HeadingGyrodeg 
SOGDGPSknotsSpeed over ground
COGDGPSdegCourse over ground
DepthEcho soundermeters200 kHz
Missing or incorrect values are displayed as -999
Navigation data collected by the RV Zeeleeuw from 2008-09-19 06:57:54 to 2008-09-19 14:09:47
Time Latitude Longitude Heading SOG COG Depth
2008-09-19 07:00:00 51°13.664 2°55.875 118.2 4.9 298 -999
2008-09-19 07:02:00 51°13.721 2°55.714 96.5 0.5 11 -999
2008-09-19 07:04:00 51°13.738 2°55.717 358.5 2.5 348 -999
2008-09-19 07:06:00 51°13.887 2°55.598 333.3 6 334 -999
2008-09-19 07:08:00 51°14.101 2°55.425 331.8 7.5 331 -999
2008-09-19 07:10:00 51°14.342 2°55.087 307 11.5 306 -999
2008-09-19 07:12:00 51°14.635 2°54.65 330.5 12.19 323 -999
2008-09-19 07:14:00 51°14.962 2°54.282 331 12 326 -999
2008-09-19 07:16:00 51°15.298 2°53.937 334.5 12 330 -999
2008-09-19 07:18:00 51°15.651 2°53.628 338.3 12 333 -999
2008-09-19 07:20:00 51°16.017 2°53.349 340.3 12.09 335 -999
2008-09-19 07:22:00 51°16.388 2°53.09 343.1 12.19 337 -999
2008-09-19 07:24:00 51°16.755 2°52.837 340.5 12 337 -999
2008-09-19 07:26:00 51°17.123 2°52.59 341.1 12 338 -999
2008-09-19 07:28:00 51°17.505 2°52.408 351.1 11.8 347 -999
2008-09-19 07:30:00 51°17.885 2°52.291 357.1 11.69 352 -999
2008-09-19 07:32:00 51°18.273 2°52.224 1.1 11.8 355 -999
2008-09-19 07:34:00 51°18.666 2°52.158 359.1 11.9 353 -999
2008-09-19 07:36:00 51°19.057 2°52.062 357.8 11.9 351 -999
2008-09-19 07:38:00 51°19.451 2°51.985 357.8 12 351 -999
2008-09-19 07:40:00 51°19.836 2°51.898 0.5 11.59 353 -999
2008-09-19 07:42:00 51°20.213 2°51.723 339 12.4 328 -999
2008-09-19 07:44:00 51°20.561 2°51.339 331.1 13 323 -999
2008-09-19 07:46:00 51°20.919 2°51.014 350.6 11.9 348 -999
2008-09-19 07:48:00 51°21.306 2°51.053 19.8 11.59 14 -999
2008-09-19 07:50:00 51°21.658 2°51.273 26.8 11.3 21 -999
2008-09-19 07:52:00 51°22.025 2°51.377 359 11.9 351 -999
2008-09-19 07:54:00 51°22.422 2°51.299   12.09 354 -999
2008-09-19 07:56:00 51°22.821 2°51.251 3.1 12.09 356 -999
2008-09-19 07:58:00 51°23.22 2°51.188 359.1 12 353 -999
2008-09-19 08:00:00 51°23.618 2°51.116 359.8 12.09 354 -999
2008-09-19 08:02:00 51°24.017 2°51.061 3.7 12 357 -999
2008-09-19 08:04:00 51°24.413 2°51.002 359.3 11.9 353 -999
2008-09-19 08:06:00 51°24.804 2°50.926 1.1 11.8 353 -999
2008-09-19 08:08:00 51°25.19 2°50.847 0.4 11.69 352 -999
2008-09-19 08:10:00 51°25.576 2°50.771 0.4 11.59 352 -999
2008-09-19 08:12:00 51°25.962 2°50.695 1.6 11.69 353 -999
2008-09-19 08:14:00 51°26.352 2°50.636 4.2 11.9 355 -999
2008-09-19 08:16:00 51°26.745 2°50.602 4 11.8 357 -999
2008-09-19 08:18:00 51°27.137 2°50.576 4.9 11.8 358 -999
2008-09-19 08:20:00 51°27.53 2°50.533 359.6 11.8 354 -999
2008-09-19 08:22:00 51°27.92 2°50.502 3.7 11.69 357 -999
2008-09-19 08:24:00 51°28.307 2°50.468 3.7 11.69 357 -999
2008-09-19 08:26:00 51°28.692 2°50.451 6.7 11.4   -999
2008-09-19 08:28:00 51°29.067 2°50.431 12.5 11 7 -999
2008-09-19 08:30:00 51°29.349 2°50.742 56.6 10.4 60 -999
2008-09-19 08:32:00 51°29.494 2°51.252 62.2 10.59 61 -999
2008-09-19 08:34:00 51°29.66 2°51.75 61.5 10.59 62 -999
2008-09-19 08:36:00 51°29.818 2°52.258 64 10.59 64 -999
2008-09-19 08:38:00 51°29.965 2°52.775 66.7 10.69 67 -999
2008-09-19 08:40:00 51°30.109 2°53.291 62.7 10.59 66 -999
2008-09-19 08:42:00 51°30.244 2°53.81 67.2 10.5 68 -999
2008-09-19 08:44:00 51°30.379 2°54.329 63.7 10.5 62 -999
2008-09-19 08:46:00 51°30.527 2°54.837 65 10.5 66 -999
2008-09-19 08:48:00 51°30.666 2°55.347 66 10.4 67 -999
2008-09-19 08:50:00 51°30.8 2°55.865 66.2 10.5 69 -999
2008-09-19 08:52:00 51°30.971 2°56.35 57.6 10.5 59 -999
2008-09-19 08:54:00 51°31.172 2°56.803 51.1 10.4 51 -999
2008-09-19 08:56:00 51°31.398 2°57.225 48.3 10.5 48 -999
2008-09-19 08:58:00 51°31.631 2°57.639 47.7 10.4 46 -999
2008-09-19 09:00:00 51°31.884 2°58.035 46.6 10.5 43 -999
2008-09-19 09:02:00 51°32.133 2°58.428 46.5 10.59 47 -999
2008-09-19 09:04:00 51°32.375 2°58.825 44.2 10.4 43 -999
2008-09-19 09:06:00 51°32.628 2°59.208 44.6 10.3 44 -999
2008-09-19 09:08:00 51°32.945 2°59.404 6.4 10.69 356 -999
2008-09-19 09:10:00 51°33.222 2°59.013 307.3 12 302 -999
2008-09-19 09:12:00 51°33.435 2°58.463 310.8 12.19 303 -999
2008-09-19 09:14:00 51°33.653 2°57.907 312 12.3 305 -999
2008-09-19 09:16:00 51°33.869 2°57.342 307.1 12.5 301 -999
2008-09-19 09:18:00 51°34.073 2°56.762 302.5 12.59 294 -999
2008-09-19 09:20:00 51°34.185 2°56.1 291.5 12.9 284 -999
2008-09-19 09:22:00 51°34.133 2°55.414 247.5 14 244 -999
2008-09-19 09:24:00 51°33.865 2°54.79 234.5 14.09 234 -999
2008-09-19 09:26:00 51°33.601 2°54.164 235 14.19 237 -999
2008-09-19 09:28:00 51°33.338 2°53.543 237 14.19 237 -999
2008-09-19 09:30:00 51°33.069 2°52.909 234.8 14.19 233 -999
2008-09-19 09:32:00 51°32.826 2°52.27 240.9 14.09 237 -999
2008-09-19 09:34:00 51°32.573 2°51.633 242 14.09 239 -999
2008-09-19 09:36:00 51°32.318 2°51.005 237.1 14 236 -999
2008-09-19 09:38:00 51°32.06 2°50.376 239.6 14.09 237 -999
2008-09-19 09:40:00 51°31.795 2°49.759 236.5 14 235 -999
2008-09-19 09:42:00 51°31.54 2°49.138 239.1 14 237 -999
2008-09-19 09:44:00 51°31.274 2°48.517 240.5 14 238 -999
2008-09-19 09:46:00 51°31.017 2°47.881 239.5 14 236 -999
2008-09-19 09:48:00 51°30.962 2°47.217 303.8 12.3 299 -999
2008-09-19 09:50:00 51°31.283 2°46.994 8.3 10.69 359 -999
2008-09-19 09:52:00 51°31.64 2°46.964 3.2 10.8 355 -999
2008-09-19 09:54:00 51°31.998 2°46.914 4.4 10.69 357 -999
2008-09-19 09:56:00 51°32.352 2°46.896 5 10.69 359 -999
2008-09-19 09:58:00 51°32.709 2°46.878 7.9 10.69   -999
2008-09-19 10:00:00 51°33.062 2°46.919 11.5 10.59 2 -999
2008-09-19 10:02:00 51°33.416 2°46.957 10.9 10.5 5 -999
2008-09-19 10:04:00 51°33.766 2°46.985 9.3 10.59 5 -999
2008-09-19 10:06:00 51°34.116 2°47.043 11.8 10.5 5 -999
2008-09-19 10:08:00 51°34.467 2°47.078 8.8 10.59 3 -999
2008-09-19 10:10:00 51°34.806 2°47.152 23.3 10.3 22 -999
2008-09-19 10:12:00 51°35.128 2°47.353 24.3 10.3 21 -999
2008-09-19 10:14:00 51°35.451 2°47.541 23.5 10.3 20 -999
2008-09-19 10:16:00 51°35.777 2°47.707 23.6 10.19 20 -999
2008-09-19 10:18:00 51°36.089 2°47.927 26.1 10.3 22 -999
2008-09-19 10:20:00 51°36.404 2°48.128 25.3 10.19 24 -999
2008-09-19 10:22:00 51°36.707 2°48.366 32.2 10.19 30 -999
2008-09-19 10:24:00 51°37.006 2°48.619 31.3 10.19 28 -999
2008-09-19 10:26:00 51°37.306 2°48.877 30.1 10.3 28 -999
2008-09-19 10:28:00 51°37.607 2°49.127 31.1 10.09 29 -999
2008-09-19 10:30:00 51°37.91 2°49.373 27.6 10.3 24 -999
2008-09-19 10:32:00 51°38.212 2°49.613 30.8 10.19 29 -999
2008-09-19 10:34:00 51°38.509 2°49.883 31.6 10.3 30 -999
2008-09-19 10:36:00 51°38.809 2°50.145 30 10.3 28 -999
2008-09-19 10:38:00 51°39.111 2°50.394 30.1 10.19 29 -999
2008-09-19 10:40:00 51°39.243 2°50.86 85.2 10.9 97 -999
2008-09-19 10:42:00 51°39.038 2°51.389 116.7 12 127 -999
2008-09-19 10:44:00 51°38.815 2°51.913 113.9 11.8 124 -999
2008-09-19 10:46:00 51°38.591 2°52.432 115 11.9 126 -999
2008-09-19 10:48:00 51°38.359 2°52.943 119.7 11.8 130 -999
2008-09-19 10:50:00 51°38.102 2°53.439 119.9 12 130 -999
2008-09-19 10:52:00 51°37.837 2°53.922 121.5 12.09 132 -999
2008-09-19 10:54:00 51°37.49 2°54.224 171.6 13.5 187 -999
2008-09-19 10:56:00 51°37.101 2°53.859 224.5 13.9 225 -999
2008-09-19 10:58:00 51°36.798 2°53.305 229.9 13.9 230 -999
2008-09-19 11:00:00 51°36.503 2°52.732 229.9 13.8 231 -999
2008-09-19 11:02:00 51°36.211 2°52.166 232.8 13.59 232 -999
2008-09-19 11:04:00 51°35.921 2°51.606 230.6 13.5 231 -999
2008-09-19 11:06:00 51°35.627 2°51.057 224.4 13.19 217 -999
2008-09-19 11:08:00 51°35.237 2°51.192 144.4 12.69 152 -999
2008-09-19 11:10:00 51°34.868 2°51.514 139.3 12.4 149 -999
2008-09-19 11:12:00 51°34.539 2°51.895 126.2 12.09 135 -999
2008-09-19 11:14:00 51°34.323 2°52.404 110 11.5 121 -999
2008-09-19 11:16:00 51°34.169 2°52.952 98.5 11 106 -999
2008-09-19 11:18:00 51°34.146 2°53.522 77 10.4 77 -999
2008-09-19 11:20:00 51°34.278 2°54.033 58.3 10.4 61 -999
2008-09-19 11:22:00 51°34.437 2°54.528 57.1 10.4 60 -999
2008-09-19 11:24:00 51°34.619 2°55.003 56 10.3 55 -999
2008-09-19 11:26:00 51°34.805 2°55.472 60.2 10.59 65 -999
2008-09-19 11:28:00 51°34.952 2°55.982 60.7 10.5 65 -999
2008-09-19 11:30:00 51°35.063 2°56.517 69.4 10.69 77 -999
2008-09-19 11:32:00 51°35.147 2°57.07 69.5 10.69 75 -999
2008-09-19 11:34:00 51°35.227 2°57.628 69.4 10.69 75 -999
2008-09-19 11:36:00 51°35.161 2°58.155 129.3 12.09 141 -999
2008-09-19 11:38:00 51°34.755 2°58.375 155.1 13.19 166 -999
2008-09-19 11:40:00 51°34.329 2°58.544 157.5 13.09 166 -999
2008-09-19 11:42:00 51°33.922 2°58.784 152 13.09 158 -999
2008-09-19 11:44:00 51°33.514 2°59.035 153 13.09 159 -999
2008-09-19 11:46:00 51°33.11 2°59.297 151.5 13.19 157 -999
2008-09-19 11:48:00 51°32.693 2°59.506 167.6 13.19 175 -999
2008-09-19 11:50:00 51°32.249 2°59.43 188.3 13.5 194 -999
2008-09-19 11:52:00 51°31.819 2°59.219 191 13.69 197 -999
2008-09-19 11:54:00 51°31.38 2°59.01 189.8 13.59 193 -999
2008-09-19 11:56:00 51°30.943 2°58.827 191.5 13.59 195 -999
2008-09-19 11:58:00 51°30.509 2°58.655 189.5 13.5 196 -999
2008-09-19 13:00:00 51°19.257 2°55.343 52.2 3.89 64 -999
2008-09-19 13:02:00 51°19.272 2°55.53 72.7 3.2 83 -999
2008-09-19 13:04:00 51°19.292 2°55.68 59.6 2.7 72 -999
2008-09-19 13:06:00 51°19.322 2°55.82 60.1 2.79 72 -999
2008-09-19 13:08:00 51°19.359 2°55.956 50.3 2.79 63 -999
2008-09-19 13:10:00 51°19.406 2°56.086 46.3 2.89 60 -999
2008-09-19 13:12:00 51°19.456 2°56.216 43.1 2.89 57 -999
2008-09-19 13:14:00 51°19.504 2°56.348 58.3 2.89 72 -999
2008-09-19 13:16:00 51°19.484 2°56.486 139.4 2.2 129 -999
2008-09-19 13:18:00 51°19.446 2°56.558 139.3 1.5 124 -999
2008-09-19 13:20:00 51°19.425 2°56.618 127 1.1 112 -999
2008-09-19 13:22:00 51°19.373 2°56.72 147.4 6.59 148 -999
2008-09-19 13:24:00 51°19.247 2°56.735 221.5 2.79 208 -999
2008-09-19 13:26:00 51°19.183 2°56.65 246 2.1 240 -999
2008-09-19 13:28:00 51°19.2 2°56.564 307.6 2.1 341 -999
2008-09-19 13:30:00 51°19.254 2°56.58 332.1 1.3 26 -999
2008-09-19 13:32:00 51°19.282 2°56.614 322.1 1 48 -999
2008-09-19 13:34:00 51°19.298 2°56.655 316.1 0.9 68 -999
2008-09-19 13:36:00 51°19.318 2°56.674 292.5 2.1 304 -999
2008-09-19 13:38:00 51°19.218 2°56.427 227.5 9 224 -999
2008-09-19 13:40:00 51°18.973 2°56.047 227.8 10.69 228 -999
2008-09-19 13:42:00 51°18.736 2°55.62 230 10.8 228 -999
2008-09-19 13:44:00 51°18.493 2°55.203 226.5 10.69 227 -999
2008-09-19 13:46:00 51°18.246 2°54.794 228.1 10.69 227 -999
2008-09-19 13:48:00 51°18.004 2°54.379 229.3 10.59 230 -999
2008-09-19 13:50:00 51°17.786 2°53.947 230.9 10.5 230 -999
2008-09-19 13:52:00 51°17.496 2°53.625 214.9 10.59 213 -999
2008-09-19 13:54:00 51°17.168 2°53.408 201 10.9 193 -999
2008-09-19 13:56:00 51°16.814 2°53.319 178 11.4 164 -999
2008-09-19 13:58:00 51°16.455 2°53.586 162.5 11.9 156 -999
2008-09-19 14:00:00 51°16.09 2°53.791 168.5 11.69 163 -999
2008-09-19 14:02:00 51°15.714 2°53.983 168 11.69 163 -999
2008-09-19 14:04:00 51°15.35 2°54.181 168.4 11.5 161 -999
2008-09-19 14:06:00 51°14.994 2°54.419 160 11.8 152 -999
2008-09-19 14:08:00 51°14.649 2°54.717 159 11.8 150 -999